createdAt,value
2022-09-30T00:00:37.643Z,1.38
2022-09-30T00:03:05.330Z,1.52
2022-09-30T00:05:32.886Z,1.40
2022-09-30T00:08:00.453Z,1.70
2022-09-30T00:10:28.061Z,1.60
2022-09-30T00:12:56.264Z,1.50
2022-09-30T00:15:25.770Z,1.55
2022-09-30T00:17:53.325Z,1.50
2022-09-30T00:20:20.981Z,1.48
2022-09-30T00:22:48.527Z,1.50
2022-09-30T00:25:16.647Z,1.50
2022-09-30T00:27:44.324Z,1.40
2022-09-30T00:30:12.216Z,1.70
2022-09-30T00:32:41.174Z,1.40
2022-09-30T00:35:08.985Z,1.50
2022-09-30T00:37:36.513Z,1.50
2022-09-30T00:40:04.457Z,1.30
2022-09-30T00:42:32.045Z,1.30
2022-09-30T00:45:05.893Z,1.40
2022-09-30T00:47:49.423Z,1.25
2022-09-30T00:50:28.407Z,1.30
2022-09-30T00:53:01.773Z,1.10
2022-09-30T00:55:37.353Z,1.90
2022-09-30T00:58:08.929Z,1.10
2022-09-30T01:00:37.074Z,1.10
2022-09-30T01:03:07.720Z,1.00
2022-09-30T01:05:35.839Z,1.10
2022-09-30T01:08:06.174Z,1.40
2022-09-30T01:10:33.821Z,1.10
2022-09-30T01:13:01.708Z,1.30
2022-09-30T01:15:41.113Z,1.20
2022-09-30T01:18:17.634Z,1.43
2022-09-30T01:21:20.594Z,1.00
2022-09-30T01:24:06.765Z,1.33
2022-09-30T01:26:54.330Z,1.30
2022-09-30T01:29:53.853Z,1.17
2022-09-30T01:32:33.632Z,1.30
2022-09-30T01:35:11.089Z,1.50
2022-09-30T01:37:47.649Z,1.10
2022-09-30T01:40:23.370Z,1.57
2022-09-30T01:43:00.049Z,1.37
2022-09-30T01:45:35.156Z,1.60
2022-09-30T01:48:12.808Z,1.30
2022-09-30T01:50:45.767Z,1.90
2022-09-30T01:53:21.748Z,1.40
2022-09-30T01:55:55.686Z,1.43
2022-09-30T01:58:31.177Z,1.20
2022-09-30T02:01:03.058Z,1.03
2022-09-30T02:03:35.954Z,1.40
2022-09-30T02:06:08.584Z,1.40
2022-09-30T02:08:42.282Z,1.20
2022-09-30T02:11:15.817Z,1.40
2022-09-30T02:13:50.136Z,1.20
2022-09-30T02:16:24.582Z,1.20
2022-09-30T02:18:58.491Z,1.40
2022-09-30T02:21:31.146Z,1.20
2022-09-30T02:24:05.597Z,1.30
2022-09-30T02:26:38.361Z,1.30
2022-09-30T02:29:10.693Z,1.20
2022-09-30T02:31:43.822Z,1.30
2022-09-30T02:34:16.421Z,1.40
2022-09-30T02:36:48.322Z,1.10
2022-09-30T02:39:22.356Z,1.57
2022-09-30T02:41:54.849Z,0.97
2022-09-30T02:44:22.774Z,1.20
2022-09-30T02:47:09.384Z,0.87
2022-09-30T02:49:46.622Z,1.20
2022-09-30T02:52:22.305Z,1.20
2022-09-30T02:55:01.710Z,1.53
2022-09-30T02:57:37.420Z,1.30
2022-09-30T03:00:12.555Z,1.30
2022-09-30T03:02:41.163Z,1.07
2022-09-30T03:05:11.474Z,1.30
2022-09-30T03:07:39.738Z,1.40
2022-09-30T03:10:14.536Z,1.40
2022-09-30T03:12:55.835Z,1.80
2022-09-30T03:15:36.915Z,1.73
2022-09-30T03:18:36.594Z,1.60
2022-09-30T03:21:15.329Z,1.67
2022-09-30T03:24:10.438Z,1.50
2022-09-30T03:26:46.659Z,1.30
2022-09-30T03:29:24.333Z,1.67
2022-09-30T03:32:03.728Z,1.40
2022-09-30T03:34:37.664Z,1.53
2022-09-30T03:37:28.658Z,1.50
2022-09-30T03:40:00.733Z,1.40
2022-09-30T03:42:36.370Z,1.40
2022-09-30T03:45:11.443Z,1.67
2022-09-30T03:47:45.132Z,1.60
2022-09-30T03:50:16.675Z,1.40
2022-09-30T03:52:46.223Z,1.60
2022-09-30T03:55:15.585Z,1.47
2022-09-30T03:57:44.418Z,1.50
2022-09-30T04:00:13.991Z,1.40
2022-09-30T04:02:42.032Z,1.27
2022-09-30T04:05:09.797Z,1.40
2022-09-30T04:07:39.239Z,1.50
2022-09-30T04:10:09.085Z,1.50
2022-09-30T04:12:36.647Z,1.50
2022-09-30T04:15:05.075Z,1.50
2022-09-30T04:17:32.662Z,1.40
2022-09-30T04:20:00.422Z,1.30
2022-09-30T04:22:28.036Z,1.50
2022-09-30T04:24:55.678Z,1.67
2022-09-30T04:27:24.643Z,1.30
2022-09-30T04:29:52.201Z,1.70
2022-09-30T04:32:19.790Z,2.15
2022-09-30T04:34:47.331Z,1.90
2022-09-30T04:37:15.694Z,1.50
2022-09-30T04:39:44.207Z,1.80
2022-09-30T04:42:12.042Z,1.90
2022-09-30T04:44:40.930Z,1.87
2022-09-30T04:47:08.578Z,1.67
2022-09-30T04:49:36.134Z,1.77
2022-09-30T04:52:03.870Z,1.60
2022-09-30T04:54:31.473Z,1.63
2022-09-30T04:56:59.093Z,1.80
2022-09-30T04:59:26.642Z,1.70
2022-09-30T05:01:55.893Z,1.60
2022-09-30T05:04:23.508Z,1.27
2022-09-30T05:06:51.073Z,1.10
2022-09-30T05:09:18.697Z,1.30
2022-09-30T05:11:46.272Z,1.30
2022-09-30T05:14:14.006Z,2.10
2022-09-30T05:16:41.595Z,1.50
2022-09-30T05:19:10.542Z,1.40
2022-09-30T05:21:38.171Z,1.80
2022-09-30T05:24:05.802Z,1.40
2022-09-30T05:26:33.634Z,1.50
2022-09-30T05:29:01.229Z,1.60
2022-09-30T05:31:28.946Z,1.50
2022-09-30T05:33:58.272Z,1.20
2022-09-30T05:36:27.334Z,1.40
2022-09-30T05:38:55.720Z,1.40
2022-09-30T05:41:24.372Z,1.30
2022-09-30T05:43:51.977Z,1.20
2022-09-30T05:46:21.015Z,1.20
2022-09-30T05:48:48.619Z,1.33
2022-09-30T05:51:16.369Z,1.40
2022-09-30T05:53:45.506Z,1.10
2022-09-30T05:56:13.387Z,1.43
2022-09-30T05:58:42.039Z,1.40
2022-09-30T06:01:13.780Z,1.23
2022-09-30T06:03:42.764Z,1.70
2022-09-30T06:06:10.895Z,1.40
2022-09-30T06:08:38.487Z,1.40
2022-09-30T06:11:12.641Z,1.70
2022-09-30T06:13:40.975Z,1.70
2022-09-30T06:16:09.715Z,1.97
2022-09-30T06:18:39.035Z,1.90
2022-09-30T06:21:06.832Z,1.77
2022-09-30T06:23:36.615Z,1.80
2022-09-30T06:26:06.563Z,1.70
2022-09-30T06:28:35.914Z,1.53
2022-09-30T06:31:03.982Z,1.50
2022-09-30T06:33:32.306Z,1.50
2022-09-30T06:36:04.138Z,1.50
2022-09-30T06:38:32.146Z,1.40
2022-09-30T06:41:00.321Z,1.37
2022-09-30T06:43:27.848Z,1.40
2022-09-30T06:46:10.238Z,1.50
2022-09-30T06:48:42.729Z,1.67
2022-09-30T06:51:10.843Z,1.53
2022-09-30T06:53:39.210Z,1.30
2022-09-30T06:56:07.298Z,1.50
2022-09-30T06:58:35.292Z,1.30
2022-09-30T07:01:06.205Z,1.20
2022-09-30T07:03:35.674Z,1.20
2022-09-30T07:06:05.428Z,1.20
2022-09-30T07:08:35.354Z,1.40
2022-09-30T07:11:04.767Z,1.53
2022-09-30T07:13:33.406Z,2.43
2022-09-30T07:16:01.352Z,1.40
2022-09-30T07:18:30.306Z,1.10
2022-09-30T07:20:57.898Z,1.17
2022-09-30T07:23:27.336Z,1.10
2022-09-30T07:25:57.597Z,1.13
2022-09-30T07:28:27.997Z,1.10
2022-09-30T07:31:20.004Z,1.13
2022-09-30T07:33:47.226Z,1.10
2022-09-30T07:36:18.784Z,1.30
2022-09-30T07:38:49.823Z,1.40
2022-09-30T07:41:21.909Z,1.10
2022-09-30T07:43:50.929Z,0.90
2022-09-30T07:46:22.253Z,1.00
2022-09-30T07:48:54.517Z,1.30
2022-09-30T07:51:24.819Z,1.00
2022-09-30T07:53:55.801Z,0.90
2022-09-30T07:56:24.519Z,1.30
2022-09-30T07:58:55.512Z,0.97
2022-09-30T08:01:24.347Z,1.20
2022-09-30T08:03:57.751Z,1.30
2022-09-30T08:06:26.674Z,1.33
2022-09-30T08:08:55.799Z,1.37
2022-09-30T08:11:23.640Z,1.00
2022-09-30T08:13:52.504Z,1.20
2022-09-30T08:16:20.194Z,1.20
2022-09-30T08:18:48.254Z,1.10
2022-09-30T08:21:17.142Z,1.10
2022-09-30T08:23:45.092Z,1.00
2022-09-30T08:26:15.319Z,0.80
2022-09-30T08:28:46.973Z,1.00
2022-09-30T16:49:15.775Z,2.20
2022-09-30T16:51:43.441Z,2.40
2022-09-30T16:54:12.137Z,1.80
2022-09-30T16:56:40.505Z,1.90
2022-09-30T16:59:14.236Z,2.15
2022-09-30T17:01:42.736Z,2.10
2022-09-30T17:04:15.209Z,1.70
2022-09-30T17:06:46.122Z,1.90
2022-09-30T17:09:13.877Z,2.00
2022-09-30T17:11:41.914Z,2.60
2022-09-30T17:14:09.729Z,2.40
2022-09-30T17:16:38.063Z,3.23
2022-09-30T17:19:05.693Z,3.10
2022-09-30T17:21:34.580Z,2.80
2022-09-30T17:24:02.592Z,3.00
2022-09-30T17:26:30.479Z,2.87
2022-09-30T17:29:14.780Z,3.00
2022-09-30T17:31:46.249Z,2.97
2022-09-30T17:34:13.912Z,3.60
2022-09-30T17:36:42.885Z,3.43
2022-09-30T17:39:11.380Z,3.70
2022-09-30T17:41:56.709Z,3.73
2022-09-30T17:44:25.272Z,3.73
2022-09-30T17:47:00.390Z,3.37
2022-09-30T17:49:36.090Z,3.37
2022-09-30T17:52:05.363Z,4.60
2022-09-30T17:54:34.356Z,7.33
2022-09-30T17:57:02.022Z,6.00
2022-09-30T17:59:30.003Z,6.13
2022-09-30T18:01:57.624Z,6.93
2022-09-30T18:04:26.023Z,5.20
2022-09-30T18:06:54.326Z,4.20
2022-09-30T18:09:24.143Z,4.27
2022-09-30T18:11:53.247Z,3.83
2022-09-30T18:14:20.831Z,2.93
2022-09-30T18:16:48.400Z,2.97
2022-09-30T18:19:16.022Z,3.57
2022-09-30T18:21:43.574Z,3.70
2022-09-30T18:24:11.311Z,3.47
2022-09-30T18:26:40.205Z,4.20
2022-09-30T18:29:07.883Z,4.20
2022-09-30T18:31:37.316Z,3.53
2022-09-30T18:34:06.278Z,3.60
2022-09-30T18:36:33.879Z,4.17
2022-09-30T18:39:02.608Z,4.03
2022-09-30T18:41:31.827Z,3.77
2022-09-30T18:44:02.467Z,3.97
2022-09-30T18:46:30.610Z,3.07
2022-09-30T18:48:58.226Z,3.40
2022-09-30T18:51:26.117Z,3.00
2022-09-30T18:53:57.398Z,3.80
2022-09-30T18:56:27.291Z,4.07
2022-09-30T18:58:54.917Z,3.40
2022-09-30T19:01:23.877Z,3.87
2022-09-30T19:03:52.482Z,3.97
2022-09-30T19:06:20.287Z,3.40
2022-09-30T19:08:48.358Z,3.30
2022-09-30T19:11:17.471Z,4.93
2022-09-30T19:13:47.089Z,3.77
2022-09-30T19:16:18.145Z,3.77
2022-09-30T19:18:47.887Z,3.80
2022-09-30T19:21:17.437Z,3.20
2022-09-30T19:23:45.030Z,6.87
2022-09-30T19:26:15.401Z,4.45
2022-09-30T19:28:43.593Z,4.40
2022-09-30T19:31:13.548Z,4.20
2022-09-30T19:33:54.730Z,4.50
2022-09-30T19:36:26.988Z,4.25
2022-09-30T19:39:07.474Z,3.30
2022-09-30T19:41:37.540Z,3.40
2022-09-30T19:44:05.226Z,3.53
2022-09-30T19:46:32.785Z,3.40
2022-09-30T19:49:00.452Z,3.63
2022-09-30T19:51:31.092Z,4.22
2022-09-30T19:54:06.130Z,3.50
2022-09-30T19:56:35.639Z,3.42
2022-09-30T19:59:03.774Z,3.30
2022-09-30T20:01:34.311Z,3.30
2022-09-30T20:04:05.178Z,3.83
2022-09-30T20:06:35.382Z,3.10
2022-09-30T20:09:05.703Z,5.00
2022-09-30T20:11:36.460Z,4.33
2022-09-30T20:14:23.913Z,6.13
2022-09-30T20:16:51.618Z,3.28
2022-09-30T20:19:19.910Z,3.05
2022-09-30T20:21:50.047Z,2.97
2022-09-30T20:24:19.358Z,2.80
2022-09-30T20:26:47.949Z,2.65
2022-09-30T20:29:18.906Z,3.20
2022-09-30T20:31:46.721Z,2.60
2022-09-30T20:34:16.428Z,2.70
2022-09-30T20:36:44.990Z,3.05
2022-09-30T20:39:13.943Z,2.95
2022-09-30T20:41:42.087Z,3.05
2022-09-30T20:44:12.099Z,3.08
2022-09-30T20:46:41.337Z,3.58
2022-09-30T20:49:08.904Z,3.42
2022-09-30T20:51:36.642Z,3.33
2022-09-30T20:54:04.684Z,3.40
2022-09-30T20:56:55.680Z,3.50
2022-09-30T20:59:21.169Z,3.23
2022-09-30T21:01:49.071Z,3.40
2022-09-30T21:04:16.682Z,3.35
2022-09-30T21:06:44.209Z,3.70
2022-09-30T21:09:12.665Z,3.25
2022-09-30T21:11:42.309Z,2.73
2022-09-30T21:14:11.161Z,2.85
2022-09-30T21:16:38.738Z,2.70
2022-09-30T21:19:06.287Z,2.50
2022-09-30T21:21:34.128Z,3.27
2022-09-30T21:24:02.584Z,3.10
2022-09-30T21:26:30.155Z,2.50
2022-09-30T21:29:00.138Z,2.63
2022-09-30T21:31:28.136Z,3.00
2022-09-30T21:33:58.234Z,2.30
2022-09-30T21:36:26.878Z,2.53
2022-09-30T21:38:54.890Z,2.67
2022-09-30T21:41:22.768Z,2.60
2022-09-30T21:43:50.518Z,2.70
2022-09-30T21:46:19.562Z,2.47
2022-09-30T21:48:47.392Z,2.50
2022-09-30T21:51:14.936Z,2.60
2022-09-30T21:53:43.344Z,2.90
2022-09-30T21:56:12.419Z,2.70
2022-09-30T21:58:40.227Z,2.87
2022-09-30T22:01:08.339Z,2.63
2022-09-30T22:03:38.445Z,2.60
2022-09-30T22:06:08.083Z,2.37
2022-09-30T22:08:40.436Z,2.50
2022-09-30T22:11:10.186Z,2.70
2022-09-30T22:13:37.821Z,2.60
2022-09-30T22:16:06.949Z,2.30
2022-09-30T22:18:35.485Z,2.20
2022-09-30T22:21:06.000Z,2.27
2022-09-30T22:23:33.994Z,2.43
2022-09-30T22:26:08.499Z,2.30
2022-09-30T22:28:36.813Z,2.77
2022-09-30T22:31:12.120Z,2.60
2022-09-30T22:33:57.023Z,2.80
2022-09-30T22:36:43.383Z,2.73
2022-09-30T22:39:11.537Z,2.33
2022-09-30T22:41:39.462Z,2.67
2022-09-30T22:44:07.691Z,2.50
2022-09-30T22:46:36.153Z,2.30
2022-09-30T22:49:04.438Z,2.43
2022-09-30T22:51:33.978Z,3.13
2022-09-30T22:54:03.390Z,2.97
2022-09-30T22:56:31.550Z,3.77
2022-09-30T22:58:59.646Z,3.70
2022-09-30T23:01:28.338Z,3.63
2022-09-30T23:03:56.397Z,2.88
2022-09-30T23:06:25.070Z,3.67
2022-09-30T23:08:54.497Z,3.73
2022-09-30T23:11:23.359Z,3.50
2022-09-30T23:13:58.184Z,2.80
2022-09-30T23:16:26.978Z,3.00
2022-09-30T23:18:54.653Z,2.92
2022-09-30T23:21:22.397Z,3.08
2022-09-30T23:23:50.132Z,2.80
2022-09-30T23:26:20.681Z,2.65
2022-09-30T23:28:49.190Z,2.70
2022-09-30T23:31:17.988Z,2.70
2022-09-30T23:33:47.862Z,2.80
2022-09-30T23:36:17.782Z,2.55
2022-09-30T23:38:46.650Z,3.08
2022-09-30T23:41:15.277Z,3.03
2022-09-30T23:43:48.370Z,3.00
2022-09-30T23:46:19.645Z,2.92
2022-09-30T23:48:47.399Z,2.80
2022-09-30T23:51:17.889Z,2.88
2022-09-30T23:53:45.909Z,2.80
2022-09-30T23:56:15.305Z,2.95
2022-09-30T23:58:45.482Z,2.80
